Time;durP1;ratioP1;P1;durP2;ratioP2;P2;SDS_P1;SDS_P2;PMS_P1;PMS_P2;Temp;Humidity;BMP_temperature;BMP_pressure;BME280_temperature;BME280_humidity;BME280_pressure;Samples;Min_cycle;Max_cycle;Signal;HPM_P1;HPM_P2
2024/04/23 00:01:38;;;;;;;8.63;5.90;;;;;;;3.40;63.38;101070.94;10259292;28;20365;-75
2024/04/23 00:06:40;;;;;;;11.30;5.65;;;;;;;3.27;63.90;101063.47;10292776;28;20025;-75
2024/04/23 00:11:42;;;;;;;11.02;6.15;;;;;;;3.20;64.47;101061.13;10269826;28;20471;-75
2024/04/23 00:16:55;;;;;;;11.95;6.38;;;;;;;3.23;64.57;101056.53;10271681;28;20034;-74
2024/04/23 00:21:58;;;;;;;7.72;5.68;;;;;;;3.12;64.55;101047.28;10284654;28;20437;-74
2024/04/23 00:27:00;;;;;;;;;;;;;;;3.03;65.16;101046.72;10289714;28;20009;-74
2024/04/23 00:32:02;;;;;;;10.27;6.30;;;;;;;3.00;66.01;101045.97;10289870;28;19943;-74
2024/04/23 00:37:04;;;;;;;11.40;6.75;;;;;;;3.17;66.46;101040.84;10283202;28;20025;-74
2024/04/23 00:42:06;;;;;;;8.40;6.93;;;;;;;3.11;65.80;101043.75;10278366;28;20017;-74
2024/04/23 00:47:08;;;;;;;11.05;6.78;;;;;;;2.89;66.28;101035.78;10260267;28;20343;-74
2024/04/23 00:52:10;;;;;;;8.98;6.72;;;;;;;2.66;67.05;101041.97;10277402;28;20068;-74
2024/04/23 00:57:12;;;;;;;8.40;6.57;;;;;;;2.60;67.71;101039.53;10286081;28;20008;-75
2024/04/23 01:02:14;;;;;;;8.93;5.07;;;;;;;2.39;68.56;101042.03;10285982;28;20024;-75
2024/04/23 01:07:15;;;;;;;11.20;7.30;;;;;;;2.34;68.86;101038.69;10285892;28;20004;-75
2024/04/23 01:12:17;;;;;;;14.23;7.30;;;;;;;2.18;69.75;101038.34;10289354;28;20466;-75
2024/04/23 01:17:21;;;;;;;10.23;6.97;;;;;;;2.05;70.06;101036.19;10267623;28;20343;-75
2024/04/23 01:22:34;;;;;;;15.05;7.85;;;;;;;2.11;70.96;101028.03;10279967;28;20094;-75
2024/04/23 01:27:36;;;;;;;13.27;7.47;;;;;;;1.99;71.18;101031.13;10288165;28;20632;-75
2024/04/23 01:32:41;;;;;;;12.07;7.65;;;;;;;2.01;71.04;101026.63;10287826;28;20028;-75
2024/04/23 01:37:47;;;;;;;14.02;7.65;;;;;;;1.99;71.03;101016.09;10292694;28;20025;-75
2024/04/23 01:42:51;;;;;;;11.88;7.85;;;;;;;1.99;71.33;101024.03;10270685;28;20021;-75
2024/04/23 01:47:53;;;;;;;14.93;8.00;;;;;;;1.90;71.85;101025.22;10244513;28;20482;-75
2024/04/23 01:52:55;;;;;;;14.70;7.90;;;;;;;1.76;72.34;101011.59;10274345;28;20017;-75
2024/04/23 01:57:57;;;;;;;12.43;8.32;;;;;;;1.67;73.06;101012.78;10286001;28;20016;-74
2024/04/23 02:03:00;;;;;;;17.10;9.90;;;;;;;1.96;73.37;101013.53;10288814;28;20477;-75
2024/04/23 02:08:02;;;;;;;11.35;8.85;;;;;;;2.15;72.98;101000.50;10286327;28;20028;-75
2024/04/23 02:13:04;;;;;;;14.30;9.30;;;;;;;2.02;71.41;100991.25;10284607;28;20557;-76
2024/04/23 02:18:06;;;;;;;12.02;8.85;;;;;;;1.80;71.56;100994.66;10263439;28;20024;-74
2024/04/23 02:23:08;;;;;;;15.48;8.50;;;;;;;1.68;72.30;100992.44;10272972;28;20035;-75
2024/04/23 02:28:10;;;;;;;16.27;9.20;;;;;;;1.65;72.60;100990.78;10286634;28;20009;-75
2024/04/23 02:33:12;;;;;;;12.50;9.35;;;;;;;1.82;73.39;100990.19;10294720;28;20317;-75
2024/04/23 02:38:14;;;;;;;14.27;9.23;;;;;;;1.83;72.70;100985.75;10299132;28;20013;-75
2024/04/23 02:43:16;;;;;;;14.93;9.93;;;;;;;1.57;73.09;100968.13;10281884;28;20030;-75
2024/04/23 02:48:18;;;;;;;14.55;9.88;;;;;;;1.66;74.40;100976.59;10281396;28;20020;-74
2024/04/23 02:53:20;;;;;;;15.43;9.82;;;;;;;1.60;74.51;100962.72;10288418;28;20023;-74
2024/04/23 02:58:22;;;;;;;13.63;9.95;;;;;;;1.48;75.22;100975.47;10292340;28;20442;-74
2024/04/23 03:03:23;;;;;;;15.05;10.80;;;;;;;1.56;75.39;100972.53;10299320;28;20012;-74
2024/04/23 03:08:25;;;;;;;14.68;10.65;;;;;;;1.53;75.02;100974.41;10290338;28;20028;-74
2024/04/23 03:13:27;;;;;;;16.13;10.23;;;;;;;1.31;76.78;100967.19;10295446;28;20024;-75
2024/04/23 03:18:29;;;;;;;17.20;11.07;;;;;;;1.32;76.62;100979.53;10283820;28;20027;-74
2024/04/23 03:23:31;;;;;;;14.52;11.43;;;;;;;1.32;76.38;100973.34;10288693;28;20644;-75
2024/04/23 03:28:32;;;;;;;16.15;10.85;;;;;;;1.32;76.42;100966.31;10272855;28;20004;-75
2024/04/23 03:33:34;;;;;;;16.27;10.68;;;;;;;1.28;76.06;100967.31;10297358;28;20017;-75
2024/04/23 03:38:36;;;;;;;21.23;11.23;;;;;;;1.18;75.22;100971.16;10303078;28;20092;-75
2024/04/23 03:43:38;;;;;;;15.88;10.40;;;;;;;1.12;75.36;100971.38;10279224;28;20028;-75
2024/04/23 03:48:40;;;;;;;14.73;10.15;;;;;;;1.02;75.47;100973.47;10275011;28;20106;-75
2024/04/23 03:53:42;;;;;;;13.88;10.35;;;;;;;0.87;75.75;100976.56;10283148;28;20489;-75
2024/04/23 03:58:43;;;;;;;13.02;9.50;;;;;;;0.92;76.05;100969.38;10280904;28;20005;-75
2024/04/23 04:09:05;;;;;;;11.95;9.70;;;;;;;0.82;76.78;100967.03;10284431;28;20005;-75
2024/04/23 04:14:07;;;;;;;14.48;10.68;;;;;;;0.75;76.95;100949.59;10283947;28;20025;-75
2024/04/23 04:19:09;;;;;;;11.10;8.52;;;;;;;0.63;77.60;100951.75;10249063;28;20370;-75
2024/04/23 04:24:11;;;;;;;19.08;12.23;;;;;;;0.51;78.05;100945.06;10278685;28;20017;-75
2024/04/23 04:29:12;;;;;;;16.27;11.25;;;;;;;0.48;78.28;100951.31;10288672;28;20016;-75
2024/04/23 04:34:14;;;;;;;16.05;11.10;;;;;;;0.52;78.18;100952.06;10265279;28;20013;-74
2024/04/23 04:39:20;;;;;;;15.75;10.90;;;;;;;0.54;78.26;100944.97;10290549;28;20017;-75
2024/04/23 04:44:21;;;;;;;15.18;10.57;;;;;;;0.77;78.29;100953.06;10257280;28;20020;-74
2024/04/23 04:49:23;;;;;;;16.13;11.43;;;;;;;0.71;77.49;100952.38;10277048;28;20043;-75
2024/04/23 04:54:25;;;;;;;16.73;10.60;;;;;;;0.83;76.99;100955.50;10297140;28;20117;-75
2024/04/23 04:59:27;;;;;;;16.27;10.55;;;;;;;0.99;77.79;100962.97;10303991;28;20462;-75
2024/04/23 05:04:29;;;;;;;17.88;11.02;;;;;;;1.16;77.77;100959.78;10297089;28;20024;-75
2024/04/23 05:09:32;;;;;;;16.98;10.57;;;;;;;1.31;77.72;100956.59;10264004;28;20009;-75
2024/04/23 05:14:34;;;;;;;16.88;10.77;;;;;;;1.38;77.43;100957.28;10276995;28;20045;-75
2024/04/23 05:19:35;;;;;;;19.30;11.30;;;;;;;1.41;77.25;100951.88;10283714;28;20016;-76
2024/04/23 05:24:37;;;;;;;14.30;9.50;;;;;;;1.44;77.27;100955.28;10287173;28;20031;-75
2024/04/23 05:29:41;;;;;;;15.45;10.02;;;;;;;1.50;77.10;100963.00;10286756;28;20362;-76
2024/04/23 05:34:43;;;;;;;14.43;10.05;;;;;;;1.62;76.27;100963.50;10295845;28;20031;-76
2024/04/23 05:39:44;;;;;;;14.00;10.50;;;;;;;1.70;76.43;100964.09;10290465;28;20025;-75
2024/04/23 05:44:46;;;;;;;14.43;10.55;;;;;;;1.73;75.83;100966.66;10287838;28;20013;-75
2024/04/23 05:50:26;;;;;;;17.98;11.52;;;;;;;1.85;75.73;100960.94;10264442;28;20013;-75
2024/04/23 05:55:48;;;;;;;15.77;10.65;;;;;;;2.02;75.12;100965.63;10275638;28;20064;-75
2024/04/23 06:00:50;;;;;;;25.33;16.47;;;;;;;2.23;75.88;100963.13;10294787;28;20159;-75
2024/04/23 06:05:52;;;;;;;18.13;9.05;;;;;;;2.89;74.74;100961.47;10284593;28;20585;-74
2024/04/23 06:10:54;;;;;;;10.82;6.82;;;;;;;3.40;71.24;100951.41;10290050;28;20540;-74
2024/04/23 06:15:56;;;;;;;10.43;7.38;;;;;;;3.70;68.56;100966.06;10290600;28;20716;-74
2024/04/23 06:20:57;;;;;;;16.80;9.32;;;;;;;3.69;67.37;100964.31;10278156;28;20014;-74
2024/04/23 06:25:59;;;;;;;14.57;10.13;;;;;;;3.73;66.88;100968.59;10289592;28;20025;-75
2024/04/23 06:31:01;;;;;;;15.10;10.70;;;;;;;3.92;66.21;100966.00;10293247;28;20004;-76
2024/04/23 06:36:03;;;;;;;14.77;10.48;;;;;;;4.06;66.74;100956.53;10276847;28;20478;-76
2024/04/23 06:41:05;;;;;;;15.63;10.27;;;;;;;4.03;67.93;100948.69;10278718;28;20020;-76
2024/04/23 06:46:07;;;;;;;15.57;9.13;;;;;;;4.13;68.96;100950.88;10283896;28;20028;-76
2024/04/23 06:51:09;;;;;;;20.17;10.60;;;;;;;4.38;66.69;100944.44;10304750;28;20007;-76
2024/04/23 06:56:11;;;;;;;14.00;9.45;;;;;;;4.75;66.19;100942.72;10284685;28;20049;-76
2024/04/23 07:01:14;;;;;;;15.45;8.95;;;;;;;5.17;65.11;100947.75;10312909;28;20008;-77
2024/04/23 07:06:16;;;;;;;10.35;7.72;;;;;;;5.43;61.24;100942.91;10274566;28;20035;-75
2024/04/23 07:11:18;;;;;;;10.90;7.85;;;;;;;5.92;60.15;100932.38;10314018;28;20095;-75
2024/04/23 07:16:21;;;;;;;12.18;8.45;;;;;;;6.06;59.65;100918.31;10288234;28;20031;-78
2024/04/23 07:21:23;;;;;;;;;;;;;;;6.05;60.45;100920.13;10293181;28;20008;-75
2024/04/23 07:26:25;;;;;;;13.88;8.63;;;;;;;6.74;57.52;100915.47;10317024;28;19944;-77
2024/04/23 07:31:27;;;;;;;10.80;7.65;;;;;;;7.01;54.49;100913.91;10341640;28;20025;-78
2024/04/23 07:36:29;;;;;;;11.05;7.90;;;;;;;6.99;52.44;100906.94;10343681;28;20021;-76
2024/04/23 07:41:31;;;;;;;12.95;7.75;;;;;;;7.62;53.33;100909.44;10337228;28;20008;-75
2024/04/23 07:46:33;;;;;;;9.32;7.78;;;;;;;8.02;51.36;100901.66;10368113;28;20012;-75
2024/04/23 07:51:35;;;;;;;12.02;7.55;;;;;;;8.34;49.81;100905.00;10342816;28;20028;-77
2024/04/23 07:56:37;;;;;;;9.93;7.75;;;;;;;8.82;49.68;100896.59;10323842;28;20035;-75
2024/04/23 08:01:38;;;;;;;9.87;7.70;;;;;;;8.98;48.66;100894.63;10341140;28;20022;-75
2024/04/23 08:06:40;;;;;;;12.35;6.82;;;;;;;7.90;49.04;100889.06;10337118;28;20392;-75
2024/04/23 08:11:42;;;;;;;7.27;6.07;;;;;;;7.76;48.42;100886.34;10328543;28;20030;-75
2024/04/23 08:16:46;;;;;;;;;;;;;;;8.15;48.15;100889.22;10350766;28;20297;-75
2024/04/23 08:21:49;;;;;;;10.07;6.97;;;;;;;8.58;49.85;100882.97;10348422;28;20276;-75
2024/04/23 08:26:50;;;;;;;8.40;6.10;;;;;;;8.35;45.68;100876.41;10341135;28;20008;-75
2024/04/23 08:31:52;;;;;;;7.87;5.43;;;;;;;8.73;44.41;100879.31;10344801;28;20870;-76
2024/04/23 08:36:54;;;;;;;8.70;5.50;;;;;;;9.81;42.88;100862.16;10333198;28;20578;-76
2024/04/23 08:41:57;;;;;;;6.22;4.13;;;;;;;8.83;40.55;100858.13;10337846;28;20027;-76
2024/04/23 08:46:59;;;;;;;;;;;;;;;10.02;38.87;100838.34;10347073;28;20016;-76
2024/04/23 08:52:01;;;;;;;3.90;3.37;;;;;;;8.85;40.04;100834.78;10324072;28;20451;-76
2024/04/23 08:57:03;;;;;;;4.63;3.05;;;;;;;9.83;40.07;100824.50;10343592;28;20023;-76
2024/04/23 09:02:05;;;;;;;7.30;4.07;;;;;;;11.46;38.20;100819.53;10338210;28;20013;-76
2024/04/23 09:07:08;;;;;;;4.63;3.20;;;;;;;11.08;35.30;100817.09;10327040;28;20023;-76
2024/04/23 09:12:23;;;;;;;5.82;3.83;;;;;;;10.30;38.38;100813.03;10308269;28;20036;-77
2024/04/23 09:17:25;;;;;;;4.43;3.22;;;;;;;9.47;39.30;100816.22;10342377;28;20020;-75
2024/04/23 09:22:27;;;;;;;5.85;3.63;;;;;;;10.82;36.90;100811.00;10309101;28;20013;-75
2024/04/23 09:27:32;;;;;;;6.30;3.45;;;;;;;11.49;36.23;100804.97;10317749;28;20477;-75
2024/04/23 09:32:33;;;;;;;3.85;3.40;;;;;;;12.45;33.67;100792.84;10319986;28;20012;-75
2024/04/23 09:37:35;;;;;;;3.92;3.30;;;;;;;13.54;32.55;100773.69;10343348;28;20164;-75
2024/04/23 09:42:37;;;;;;;4.38;3.20;;;;;;;13.78;32.82;100776.06;10329070;28;20023;-76
2024/04/23 09:47:40;;;;;;;4.72;3.38;;;;;;;13.48;31.34;100766.97;10325018;28;20066;-75
2024/04/23 09:52:44;;;;;;;5.50;2.85;;;;;;;12.63;31.93;100771.59;10311462;28;20016;-77
2024/04/23 09:57:49;;;;;;;4.00;3.42;;;;;;;12.95;31.67;100774.28;10326311;28;20009;-75
2024/04/23 10:02:58;;;;;;;5.13;3.33;;;;;;;13.82;32.88;100761.34;10319827;28;20012;-76
2024/04/23 10:08:08;;;;;;;5.57;3.60;;;;;;;13.36;33.47;100746.44;10319761;28;20009;-75
2024/04/23 10:13:15;;;;;;;7.30;4.38;;;;;;;10.33;37.29;100756.41;10325095;28;20109;-76
2024/04/23 10:18:24;;;;;;;4.43;3.35;;;;;;;10.20;36.24;100749.38;10327571;28;20008;-76
2024/04/23 10:23:27;;;;;;;5.70;3.85;;;;;;;9.21;37.75;100747.47;10308775;28;20011;-75
2024/04/23 10:28:29;;;;;;;7.32;4.18;;;;;;;9.81;37.96;100729.81;10336741;28;20027;-75
2024/04/23 10:33:31;;;;;;;6.65;4.40;;;;;;;10.53;38.50;100729.88;10324685;28;20013;-75
2024/04/23 10:38:34;;;;;;;6.10;4.30;;;;;;;10.73;37.84;100720.34;10331437;28;20013;-76
2024/04/23 10:43:38;;;;;;;8.05;4.30;;;;;;;10.92;37.38;100709.88;10317291;28;20023;-76
2024/04/23 10:48:42;;;;;;;7.60;4.13;;;;;;;13.26;36.57;100699.66;10326594;28;20032;-75
2024/04/23 10:53:44;;;;;;;5.20;3.83;;;;;;;13.13;31.35;100686.38;10315061;28;20012;-75
2024/04/23 10:58:46;;;;;;;7.88;4.22;;;;;;;13.86;30.84;100678.19;10317837;28;20023;-75
2024/04/23 11:03:55;;;;;;;5.10;4.23;;;;;;;13.73;32.62;100678.44;10328253;28;20571;-75
2024/04/23 11:08:56;;;;;;;3.00;2.70;;;;;;;10.78;36.10;100689.44;10334785;28;20013;-75
2024/04/23 11:13:58;;;;;;;4.75;4.25;;;;;;;9.36;38.63;100686.56;10323267;28;20447;-76
2024/04/23 11:19:01;;;;;;;7.72;4.65;;;;;;;9.99;37.40;100674.00;10326966;28;20116;-76
2024/04/23 11:24:10;;;;;;;7.78;4.85;;;;;;;10.62;36.06;100664.75;10332350;28;20690;-76
2024/04/23 11:29:12;;;;;;;4.75;4.00;;;;;;;11.32;37.15;100660.22;10348823;28;20012;-76
2024/04/23 11:34:15;;;;;;;6.15;4.57;;;;;;;11.55;34.72;100667.31;10310172;28;20017;-75
2024/04/23 11:39:24;;;;;;;;;;;;;;;12.28;35.07;100644.25;10336316;28;20090;-76
2024/04/23 11:44:29;;;;;;;4.22;3.75;;;;;;;12.16;35.65;100643.41;10323054;28;19939;-76
2024/04/23 11:49:31;;;;;;;5.45;4.45;;;;;;;10.38;36.93;100640.59;10309979;28;20020;-76
2024/04/23 11:54:34;;;;;;;6.22;4.70;;;;;;;10.68;37.50;100634.72;10339735;28;20013;-76
2024/04/23 11:59:42;;;;;;;6.60;4.68;;;;;;;10.11;37.66;100628.28;10332713;28;20592;-76
2024/04/23 12:04:46;;;;;;;5.35;4.25;;;;;;;10.33;37.04;100619.47;10313574;28;20785;-76
2024/04/23 12:09:48;;;;;;;8.10;4.35;;;;;;;9.83;37.18;100624.09;10313291;28;20067;-76
2024/04/23 12:14:54;;;;;;;6.03;4.45;;;;;;;10.72;37.04;100605.75;10333671;28;20040;-76
2024/04/23 12:19:56;;;;;;;4.65;3.80;;;;;;;10.29;36.22;100604.56;10328851;28;20027;-76
2024/04/23 12:24:58;;;;;;;4.80;3.92;;;;;;;9.85;37.09;100605.22;10322501;28;20044;-76
2024/04/23 12:30:07;;;;;;;6.40;4.40;;;;;;;10.08;37.20;100587.41;10319010;28;20032;-77
2024/04/23 12:35:09;;;;;;;5.55;3.90;;;;;;;10.33;38.33;100587.25;10327636;28;20242;-76
2024/04/23 12:40:11;;;;;;;5.07;4.32;;;;;;;9.90;37.91;100581.59;10324597;28;20718;-76
2024/04/23 12:45:13;;;;;;;6.53;4.88;;;;;;;11.65;37.00;100560.63;10320001;28;20008;-75
2024/04/23 12:50:15;;;;;;;7.43;4.77;;;;;;;11.64;35.97;100564.28;10311610;28;20027;-74
2024/04/23 12:55:17;;;;;;;5.13;4.40;;;;;;;11.80;35.31;100553.13;10321344;28;20023;-76
2024/04/23 13:00:18;;;;;;;4.93;4.45;;;;;;;9.85;36.82;100547.03;10332978;28;20008;-75
2024/04/23 13:05:20;;;;;;;5.73;5.13;;;;;;;10.47;37.81;100547.72;10323179;28;20463;-75
2024/04/23 13:10:22;;;;;;;5.97;4.88;;;;;;;10.94;38.09;100543.09;10327192;28;20016;-76
2024/04/23 13:15:24;;;;;;;6.47;5.70;;;;;;;10.98;37.72;100533.84;10330410;28;20707;-75
2024/04/23 13:20:26;;;;;;;8.73;5.17;;;;;;;10.57;37.88;100529.91;10323835;28;20048;-75
2024/04/23 13:25:34;;;;;;;4.68;4.28;;;;;;;11.10;36.19;100524.75;10344407;28;20005;-76
2024/04/23 13:30:36;;;;;;;6.22;5.20;;;;;;;10.43;38.08;100519.41;10303455;28;20409;-76
2024/04/23 13:35:38;;;;;;;6.70;5.03;;;;;;;9.67;39.62;100511.72;10286208;28;20013;-76
2024/04/23 13:40:39;;;;;;;6.53;4.93;;;;;;;10.65;38.50;100513.22;10332984;28;20024;-76
2024/04/23 13:45:41;;;;;;;7.40;5.20;;;;;;;11.17;37.82;100493.75;10329519;28;20027;-77
2024/04/23 13:50:43;;;;;;;8.02;5.18;;;;;;;9.99;37.93;100500.41;10329621;28;20013;-76
2024/04/23 13:55:45;;;;;;;5.23;4.70;;;;;;;9.19;39.20;100492.13;10310738;28;20473;-76
2024/04/23 14:00:47;;;;;;;6.30;4.90;;;;;;;9.44;39.25;100483.97;10325976;28;20287;-76
2024/04/23 14:05:48;;;;;;;6.50;5.37;;;;;;;9.81;39.50;100473.13;10320719;28;20028;-76
2024/04/23 14:10:50;;;;;;;6.30;5.13;;;;;;;9.66;39.22;100463.56;10302562;28;20246;-76
2024/04/23 14:15:52;;;;;;;4.97;4.47;;;;;;;9.47;39.65;100448.00;10321856;28;20023;-77
2024/04/23 14:20:54;;;;;;;7.67;5.33;;;;;;;8.58;41.47;100439.34;10285170;28;20016;-76
2024/04/23 14:25:56;;;;;;;8.57;4.65;;;;;;;9.54;39.21;100441.19;10318676;28;20022;-76
2024/04/23 14:31:04;;;;;;;5.25;3.60;;;;;;;9.66;38.32;100436.75;10317489;28;20592;-76
2024/04/23 14:36:06;;;;;;;6.53;5.13;;;;;;;9.86;38.76;100436.09;10326110;28;20004;-76
2024/04/23 14:41:08;;;;;;;5.22;4.43;;;;;;;9.89;38.57;100419.75;10310777;28;20027;-76
2024/04/23 14:46:11;;;;;;;5.82;5.18;;;;;;;10.56;37.83;100407.34;10304610;28;20400;-76
2024/04/23 14:51:14;;;;;;;5.20;4.28;;;;;;;10.26;38.84;100419.56;10304388;28;20779;-76
2024/04/23 14:56:17;;;;;;;8.10;5.30;;;;;;;9.98;39.90;100409.28;10322074;28;20008;-75
2024/04/23 15:01:19;;;;;;;5.82;4.93;;;;;;;11.17;38.29;100390.75;10307331;28;20013;-76
2024/04/23 15:06:21;;;;;;;5.20;4.70;;;;;;;11.28;37.62;100383.47;10339689;28;20023;-76
2024/04/23 15:11:23;;;;;;;8.50;5.60;;;;;;;10.45;38.88;100386.72;10336372;28;20028;-76
2024/04/23 15:16:25;;;;;;;6.50;4.85;;;;;;;10.65;38.19;100381.56;10306257;28;20009;-76
2024/04/23 15:21:27;;;;;;;7.93;5.40;;;;;;;10.71;38.24;100381.91;10309183;28;20027;-76
2024/04/23 15:26:29;;;;;;;7.27;5.40;;;;;;;10.39;37.35;100380.03;10294912;28;20012;-76
2024/04/23 15:31:31;;;;;;;5.40;4.67;;;;;;;10.71;39.34;100367.63;10330064;28;20381;-76
2024/04/23 15:36:35;;;;;;;7.75;4.93;;;;;;;9.92;38.55;100365.00;10318684;28;20277;-75
2024/04/23 15:41:37;;;;;;;9.23;6.15;;;;;;;9.63;39.02;100357.38;10293901;28;20024;-76
2024/04/23 15:46:40;;;;;;;6.87;6.00;;;;;;;10.38;39.34;100342.53;10322039;28;20031;-76
2024/04/23 15:51:42;;;;;;;7.78;5.88;;;;;;;10.28;39.20;100338.88;10319543;28;20302;-76
2024/04/23 15:56:44;;;;;;;6.10;5.50;;;;;;;10.06;39.87;100332.53;10316577;28;20004;-76
2024/04/23 16:01:46;;;;;;;6.83;5.40;;;;;;;10.79;38.60;100311.44;10314183;28;20013;-76
2024/04/23 16:06:47;;;;;;;5.32;4.65;;;;;;;11.05;37.41;100307.44;10316582;28;20049;-75
2024/04/23 16:11:49;;;;;;;5.13;4.63;;;;;;;8.85;39.94;100315.06;10319722;28;20020;-76
2024/04/23 16:16:51;;;;;;;7.17;5.47;;;;;;;8.67;40.85;100301.25;10352166;28;20021;-75
2024/04/23 16:21:53;;;;;;;7.45;5.47;;;;;;;8.93;40.91;100295.75;10314481;28;20396;-75
2024/04/23 16:26:54;;;;;;;9.30;5.20;;;;;;;9.51;40.18;100289.44;10332567;28;20020;-75
2024/04/23 16:32:00;;;;;;;5.18;4.50;;;;;;;8.97;39.60;100291.88;10309170;28;20032;-75
2024/04/23 16:37:02;;;;;;;7.97;5.30;;;;;;;8.58;40.26;100281.38;10314939;28;20019;-76
2024/04/23 16:42:04;;;;;;;6.80;5.27;;;;;;;8.74;39.54;100277.53;10310716;28;20028;-75
2024/04/23 16:47:06;;;;;;;6.45;5.78;;;;;;;8.76;40.56;100273.78;10311884;28;20642;-75
2024/04/23 16:52:08;;;;;;;8.97;6.57;;;;;;;8.87;41.00;100262.25;10309867;28;20013;-76
2024/04/23 16:57:11;;;;;;;8.23;5.82;;;;;;;8.99;39.90;100257.78;10314133;28;20246;-76
2024/04/23 17:02:12;;;;;;;9.38;6.45;;;;;;;9.08;41.05;100250.84;10328691;28;20012;-75
2024/04/23 17:07:15;;;;;;;6.82;5.80;;;;;;;9.08;41.28;100248.16;10286397;28;20060;-75
2024/04/23 17:12:17;;;;;;;8.48;5.90;;;;;;;8.43;41.06;100236.13;10316322;28;20022;-75
2024/04/23 17:17:19;;;;;;;6.60;4.83;;;;;;;8.35;40.77;100231.31;10326096;28;20371;-75
2024/04/23 17:22:21;;;;;;;8.43;5.50;;;;;;;8.18;42.09;100222.72;10306942;28;20264;-75
2024/04/23 17:27:23;;;;;;;6.45;5.28;;;;;;;8.44;41.64;100214.56;10299496;28;20005;-75
2024/04/23 17:32:24;;;;;;;10.60;5.68;;;;;;;8.35;41.69;100199.19;10289825;28;20694;-75
2024/04/23 17:37:27;;;;;;;9.70;6.72;;;;;;;8.25;42.74;100190.16;10330786;28;20008;-75
2024/04/23 17:42:29;;;;;;;;;;;;;;;8.22;43.07;100187.69;10302907;28;20470;-75
2024/04/23 17:47:31;;;;;;;8.07;5.63;;;;;;;7.91;42.85;100184.63;10316218;28;19938;-75
2024/04/23 17:52:33;;;;;;;6.15;5.55;;;;;;;7.63;43.02;100183.94;10313656;28;20049;-75
2024/04/23 17:57:35;;;;;;;6.53;5.43;;;;;;;7.82;43.15;100174.59;10300508;28;20024;-75
2024/04/23 18:02:38;;;;;;;7.40;4.70;;;;;;;7.47;43.64;100169.97;10284741;28;20012;-75
2024/04/23 18:07:40;;;;;;;7.97;5.70;;;;;;;7.73;43.45;100168.06;10280149;28;20013;-75
2024/04/23 18:12:42;;;;;;;7.20;5.45;;;;;;;7.87;43.30;100157.25;10301051;28;20040;-75
2024/04/23 18:17:48;;;;;;;7.23;6.03;;;;;;;7.68;44.06;100156.88;10309595;28;20027;-75
2024/04/23 18:22:53;;;;;;;8.93;6.43;;;;;;;8.07;43.19;100145.06;10297243;28;20471;-76
2024/04/23 18:27:55;;;;;;;7.32;5.75;;;;;;;7.98;43.50;100139.53;10275791;28;20012;-76
2024/04/23 18:32:57;;;;;;;6.77;5.50;;;;;;;8.08;43.39;100144.09;10315112;28;20012;-75
2024/04/23 18:37:59;;;;;;;8.45;5.65;;;;;;;7.87;43.78;100133.19;10336720;28;20251;-76
2024/04/23 18:43:01;;;;;;;7.57;5.95;;;;;;;7.88;43.69;100120.66;10319185;28;20092;-75
2024/04/23 18:48:04;;;;;;;8.30;6.93;;;;;;;7.55;43.93;100111.47;10294533;28;20032;-75
2024/04/23 18:53:07;;;;;;;7.65;5.93;;;;;;;7.79;43.68;100106.16;10316205;28;20023;-75
2024/04/23 18:58:11;;;;;;;6.22;5.63;;;;;;;7.89;43.75;100106.31;10279645;28;20027;-75
2024/04/23 19:03:13;;;;;;;16.83;6.13;;;;;;;7.65;44.44;100099.16;10295533;28;20012;-75
2024/04/23 19:08:15;;;;;;;9.03;6.00;;;;;;;7.95;44.33;100096.03;10289774;28;20022;-75
2024/04/23 19:13:17;;;;;;;11.10;7.43;;;;;;;7.57;44.94;100090.84;10274877;28;20016;-75
2024/04/23 19:18:18;;;;;;;9.00;6.28;;;;;;;7.78;44.53;100092.88;10314611;28;20571;-75
2024/04/23 19:23:20;;;;;;;10.82;6.93;;;;;;;7.75;44.45;100085.09;10326951;28;20028;-74
2024/04/23 19:28:22;;;;;;;11.05;6.95;;;;;;;7.71;44.82;100084.47;10307012;28;20302;-74
2024/04/23 19:33:24;;;;;;;7.60;5.80;;;;;;;7.67;44.46;100082.97;10298726;28;20020;-75
2024/04/23 19:38:26;;;;;;;;;;;;;;;7.67;44.88;100077.63;10294041;28;20256;-74
2024/04/23 19:43:32;;;;;;;7.72;5.75;;;;;;;7.61;44.90;100080.75;10303489;28;19932;-74
2024/04/23 19:48:52;;;;;;;11.43;6.25;;;;;;;7.76;44.99;100070.75;10296694;28;20487;-74
2024/04/23 19:53:54;;;;;;;8.30;6.43;;;;;;;7.62;45.22;100072.63;10305991;28;20458;-74
2024/04/23 19:58:58;;;;;;;9.43;6.80;;;;;;;7.68;45.05;100068.66;10308284;28;20026;-74
2024/04/23 20:04:00;;;;;;;8.45;6.55;;;;;;;7.60;45.90;100069.22;10299521;28;20016;-74
2024/04/23 20:09:02;;;;;;;12.63;7.00;;;;;;;7.39;46.16;100060.09;10299217;28;20354;-74
2024/04/23 20:14:04;;;;;;;;;;;;;;;7.22;46.57;100059.50;10309704;28;20012;-75
2024/04/23 20:19:06;;;;;;;8.77;6.88;;;;;;;7.23;46.60;100052.34;10309264;28;20285;-75
2024/04/23 20:24:08;;;;;;;8.47;5.70;;;;;;;6.71;47.79;100048.00;10250700;28;20024;-75
2024/04/23 20:29:10;;;;;;;10.07;6.70;;;;;;;6.73;48.13;100036.25;10241475;28;20247;-73
2024/04/23 20:34:12;;;;;;;10.73;7.30;;;;;;;7.06;48.16;100030.38;10218004;29;20020;-73
2024/04/23 20:39:13;;;;;;;14.60;8.07;;;;;;;6.90;50.00;100027.09;10225225;29;20025;-72
2024/04/23 20:44:15;;;;;;;11.83;7.47;;;;;;;6.03;53.99;100035.78;10245691;29;20006;-73
2024/04/23 20:49:17;;;;;;;11.55;8.23;;;;;;;5.53;59.71;100043.53;10248815;28;20072;-73
2024/04/23 20:54:19;;;;;;;20.52;11.95;;;;;;;4.57;80.55;100061.13;10243049;29;20739;-73
2024/04/23 20:59:21;;;;;;;18.35;7.43;;;;;;;3.79;89.08;100068.44;10221416;28;20017;-73
2024/04/23 21:04:23;;;;;;;21.65;12.50;;;;;;;4.07;88.19;100065.88;10209982;29;20627;-73
2024/04/23 21:09:25;;;;;;;21.35;12.68;;;;;;;4.20;87.55;100060.69;10216652;29;20917;-73
2024/04/23 21:14:26;;;;;;;22.08;12.38;;;;;;;4.21;88.72;100056.22;10245158;28;20021;-73
2024/04/23 21:19:28;;;;;;;16.42;12.00;;;;;;;4.45;87.19;100033.47;10227337;29;20025;-74
2024/04/23 21:24:30;;;;;;;23.00;12.77;;;;;;;4.70;85.96;100024.84;10280622;28;20334;-73
2024/04/23 21:29:32;;;;;;;19.75;11.82;;;;;;;4.54;85.00;100024.91;10284130;28;20024;-73
2024/04/23 21:34:33;;;;;;;20.83;13.90;;;;;;;4.47;85.90;100026.25;10282124;28;20024;-73
2024/04/23 21:39:35;;;;;;;19.13;12.63;;;;;;;4.75;88.08;100017.41;10269459;28;20134;-73
2024/04/23 21:44:37;;;;;;;20.83;13.82;;;;;;;4.71;89.82;100015.03;10282716;28;20013;-73
2024/04/23 21:49:39;;;;;;;20.88;11.23;;;;;;;4.46;91.88;100018.38;10291818;28;20014;-73
2024/04/23 21:54:45;;;;;;;18.70;13.15;;;;;;;3.94;93.61;100023.22;10288049;28;20009;-74
2024/04/23 21:59:46;;;;;;;18.77;12.43;;;;;;;4.28;91.64;100015.91;10289753;28;20350;-73
2024/04/23 22:04:48;;;;;;;15.90;10.23;;;;;;;4.28;93.41;100013.22;10260270;28;20362;-74
2024/04/23 22:09:50;;;;;;;25.40;16.70;;;;;;;3.76;97.89;100016.34;10252647;28;20013;-74
2024/04/23 22:14:52;;;;;;;24.73;15.98;;;;;;;3.87;97.41;100000.63;10282899;28;20025;-73
2024/04/23 22:19:54;;;;;;;26.20;17.52;;;;;;;3.34;100.00;99996.63;10276578;28;20033;-73
2024/04/23 22:24:55;;;;;;;22.80;14.15;;;;;;;3.59;100.00;99996.06;10235027;28;20013;-73
2024/04/23 22:29:57;;;;;;;26.35;15.55;;;;;;;3.71;100.00;99983.88;10217254;28;20022;-73
2024/04/23 22:34:59;;;;;;;28.60;17.13;;;;;;;3.55;100.00;99978.59;10216922;29;20032;-73
2024/04/23 22:40:01;;;;;;;37.85;19.88;;;;;;;3.47;100.00;99971.06;10198987;29;20010;-74
2024/04/23 22:45:03;;;;;;;32.47;19.38;;;;;;;3.35;100.00;99969.13;10213993;28;20029;-75
2024/04/23 22:50:06;;;;;;;29.50;18.88;;;;;;;3.37;100.00;99945.13;10226619;28;20021;-74
2024/04/23 22:55:07;;;;;;;36.85;20.98;;;;;;;3.39;100.00;99940.59;10227576;28;20448;-74
2024/04/23 23:00:10;;;;;;;31.67;20.80;;;;;;;3.02;100.00;99932.13;10230473;28;20010;-74
2024/04/23 23:05:11;;;;;;;35.72;19.83;;;;;;;3.22;100.00;99925.66;10227317;28;20037;-74
2024/04/23 23:10:13;;;;;;;29.58;15.02;;;;;;;3.25;100.00;99915.72;10217803;28;20010;-73
2024/04/23 23:15:15;;;;;;;24.48;12.02;;;;;;;3.18;100.00;99918.81;10228502;28;20026;-73
2024/04/23 23:20:17;;;;;;;34.22;19.02;;;;;;;3.40;100.00;99911.31;10220980;28;20486;-73